Time;durP1;ratioP1;P1;durP2;ratioP2;P2;SDS_P1;SDS_P2;PMS_P1;PMS_P2;Temp;Humidity;BMP_temperature;BMP_pressure;BME280_temperature;BME280_humidity;BME280_pressure;Samples;Min_cycle;Max_cycle;Signal;HPM_P1;HPM_P2
2021/05/16 00:01:25;;;;;;;2.25;1.50;;;15.10;61.20;;;;;;4746301;30;20040;-89
2021/05/16 00:03:51;;;;;;;1.75;1.40;;;15.10;61.20;;;;;;4764903;30;20051;-88
2021/05/16 00:06:16;;;;;;;1.83;1.50;;;15.00;61.20;;;;;;4741504;30;20036;-88
2021/05/16 00:08:44;;;;;;;1.80;1.55;;;15.00;61.20;;;;;;4740425;30;20522;-88
2021/05/16 00:11:10;;;;;;;2.22;1.60;;;15.00;61.20;;;;;;4737105;30;20550;-87
2021/05/16 00:13:36;;;;;;;2.00;1.42;;;15.00;61.30;;;;;;4749265;30;20058;-87
2021/05/16 00:16:02;;;;;;;2.78;1.83;;;15.00;61.30;;;;;;4728284;30;20044;-87
2021/05/16 00:18:28;;;;;;;2.45;1.70;;;14.90;61.30;;;;;;4753769;30;20438;-88
2021/05/16 00:20:54;;;;;;;1.50;1.40;;;15.00;61.30;;;;;;4726866;30;20132;-88
2021/05/16 00:23:19;;;;;;;2.45;1.60;;;15.00;61.40;;;;;;4725691;30;20028;-88
2021/05/16 00:25:45;;;;;;;1.83;1.50;;;14.90;61.40;;;;;;4740302;30;20449;-87
2021/05/16 00:28:11;;;;;;;2.58;1.88;;;14.90;61.40;;;;;;4723095;30;20498;-87
2021/05/16 00:30:37;;;;;;;2.45;1.73;;;14.90;61.40;;;;;;4737271;30;20040;-88
2021/05/16 00:33:04;;;;;;;2.67;1.70;;;14.90;61.40;;;;;;4763347;30;20430;-88
2021/05/16 00:35:32;;;;;;;2.10;1.65;;;14.90;61.50;;;;;;4742408;30;20638;-88
2021/05/16 00:38:00;;;;;;;2.28;1.55;;;14.90;61.50;;;;;;4738041;30;20024;-88
2021/05/16 00:40:27;;;;;;;2.13;1.48;;;14.90;61.50;;;;;;4754931;30;20040;-87
2021/05/16 00:42:52;;;;;;;2.88;1.80;;;14.90;61.50;;;;;;4729465;30;20431;-88
2021/05/16 00:45:22;;;;;;;2.00;1.50;;;14.80;61.50;;;;;;4747575;30;20040;-89
2021/05/16 00:47:51;;;;;;;3.00;1.83;;;14.90;61.60;;;;;;4762903;30;20046;-89
2021/05/16 00:50:18;;;;;;;3.25;1.85;;;14.90;61.60;;;;;;4741867;30;20162;-89
2021/05/16 00:52:45;;;;;;;3.53;1.90;;;14.90;61.60;;;;;;4764270;30;20491;-89
2021/05/16 00:55:13;;;;;;;2.28;1.63;;;14.90;61.60;;;;;;4738227;30;20039;-88
2021/05/16 00:57:40;;;;;;;3.20;1.70;;;14.80;61.60;;;;;;4749674;30;20040;-88
2021/05/16 01:00:09;;;;;;;2.75;2.00;;;14.80;61.60;;;;;;4744849;30;20032;-88
2021/05/16 01:02:37;;;;;;;3.45;2.05;;;14.80;61.60;;;;;;4735501;30;20086;-88
2021/05/16 01:05:04;;;;;;;2.80;1.75;;;14.80;61.60;;;;;;4740981;30;20039;-88
2021/05/16 01:07:30;;;;;;;2.97;2.17;;;14.80;61.60;;;;;;4751709;30;20032;-88
2021/05/16 01:09:57;;;;;;;2.65;1.67;;;14.80;61.60;;;;;;4755954;30;20039;-88
2021/05/16 01:12:30;;;;;;;2.58;1.70;;;14.80;61.70;;;;;;4751541;30;20090;-88
2021/05/16 01:14:59;;;;;;;2.47;1.65;;;14.80;61.70;;;;;;4740875;30;20054;-88
2021/05/16 01:17:25;;;;;;;2.55;1.92;;;14.80;61.70;;;;;;4749634;30;20071;-88
2021/05/16 01:19:51;;;;;;;2.17;1.60;;;14.80;61.70;;;;;;4740882;30;20048;-89
2021/05/16 01:22:17;;;;;;;2.88;1.80;;;14.70;61.70;;;;;;4751703;30;20034;-88
2021/05/16 01:24:46;;;;;;;2.88;1.70;;;14.70;61.70;;;;;;4739829;30;20071;-89
2021/05/16 01:27:14;;;;;;;3.78;1.90;;;14.70;61.70;;;;;;4723080;30;20420;-88
2021/05/16 01:29:40;;;;;;;3.40;1.60;;;14.70;62.40;;;;;;4736493;30;20037;-88
2021/05/16 01:32:10;;;;;;;2.45;1.80;;;14.80;61.80;;;;;;4734309;30;20036;-88
2021/05/16 01:34:41;;;;;;;2.90;1.70;;;14.70;62.40;;;;;;4761587;30;20046;-88
2021/05/16 01:37:13;;;;;;;3.72;1.70;;;14.70;61.80;;;;;;4753309;30;20059;-89
2021/05/16 01:39:40;;;;;;;4.18;1.88;;;14.70;61.80;;;;;;4761785;30;20047;-88
2021/05/16 01:42:08;;;;;;;2.22;1.75;;;14.70;61.80;;;;;;4742258;30;20157;-89
2021/05/16 01:44:35;;;;;;;3.17;1.63;;;14.70;61.80;;;;;;4760843;30;20048;-88
2021/05/16 01:47:02;;;;;;;2.67;1.70;;;14.70;61.90;;;;;;4752546;30;20040;-89
2021/05/16 01:49:40;;;;;;;3.33;1.98;;;14.70;61.90;;;;;;4750919;30;20550;-87
2021/05/16 01:52:06;;;;;;;3.25;1.70;;;14.70;61.90;;;;;;4750933;30;20032;-89
2021/05/16 01:54:33;;;;;;;2.42;1.67;;;14.70;61.90;;;;;;4723042;30;20042;-88
2021/05/16 01:57:00;;;;;;;2.83;1.60;;;14.70;61.90;;;;;;4729838;30;20421;-88
2021/05/16 01:59:26;;;;;;;2.60;1.70;;;14.70;61.90;;;;;;4749209;30;20111;-89
2021/05/16 02:01:52;;;;;;;4.13;1.70;;;14.70;61.90;;;;;;4750637;30;20036;-89
2021/05/16 02:04:18;;;;;;;3.17;1.63;;;14.70;61.90;;;;;;4756305;30;20490;-89
2021/05/16 02:06:44;;;;;;;4.03;1.90;;;14.70;61.90;;;;;;4740219;30;20036;-88
2021/05/16 02:09:10;;;;;;;2.28;1.42;;;14.60;61.90;;;;;;4750445;30;20040;-88
2021/05/16 02:11:37;;;;;;;2.92;1.60;;;14.70;62.00;;;;;;4754781;30;20036;-89
2021/05/16 02:14:07;;;;;;;3.58;1.75;;;14.70;62.00;;;;;;4756143;30;20498;-89
2021/05/16 02:16:34;;;;;;;3.85;1.70;;;14.70;62.00;;;;;;4738124;30;20049;-90
2021/05/16 02:19:07;;;;;;;4.40;2.00;;;14.70;62.70;;;;;;4726538;30;20024;-89
2021/05/16 02:21:37;;;;;;;3.25;1.52;;;14.70;62.00;;;;;;4740272;30;20040;-89
2021/05/16 02:24:05;;;;;;;3.42;1.83;;;14.60;61.90;;;;;;4739885;30;20098;-89
2021/05/16 02:26:58;;;;;;;3.20;1.90;;;14.70;62.00;;;;;;4735212;30;20499;-89
2021/05/16 02:29:25;;;;;;;2.92;1.70;;;14.70;62.00;;;;;;4726538;30;20479;-90
2021/05/16 02:31:51;;;;;;;3.38;1.90;;;14.60;62.00;;;;;;4739046;30;20036;-91
2021/05/16 02:34:17;;;;;;;2.78;1.60;;;14.70;62.00;;;;;;4739706;30;20078;-90
2021/05/16 02:36:44;;;;;;;2.88;1.70;;;14.70;62.10;;;;;;4738809;30;20059;-87
2021/05/16 02:39:12;;;;;;;3.40;1.70;;;14.60;62.10;;;;;;4739442;30;20038;-90
2021/05/16 02:41:41;;;;;;;3.67;1.75;;;14.60;62.00;;;;;;4724988;30;20044;-89
2021/05/16 02:44:08;;;;;;;3.53;1.88;;;14.60;62.10;;;;;;4739275;30;20140;-90
2021/05/16 02:46:34;;;;;;;2.97;1.83;;;14.60;62.10;;;;;;4753728;30;20036;-89
2021/05/16 02:49:01;;;;;;;3.75;1.83;;;14.60;62.10;;;;;;4754389;30;20067;-88
2021/05/16 02:51:26;;;;;;;3.63;1.92;;;14.60;62.10;;;;;;4754136;30;20088;-89
2021/05/16 02:53:53;;;;;;;3.05;1.65;;;14.60;62.10;;;;;;4723489;30;20060;-91
2021/05/16 02:56:19;;;;;;;3.00;1.60;;;14.60;62.10;;;;;;4754511;30;20586;-89
2021/05/16 02:58:46;;;;;;;3.80;2.20;;;14.60;62.10;;;;;;4724257;30;20058;-90
2021/05/16 03:01:12;;;;;;;4.70;1.75;;;14.60;62.20;;;;;;4739356;30;20032;-89
2021/05/16 03:03:43;;;;;;;2.55;1.60;;;14.60;62.20;;;;;;4750810;30;20139;-90
2021/05/16 03:06:11;;;;;;;2.47;1.58;;;14.60;62.20;;;;;;4737660;30;20052;-91
2021/05/16 03:08:37;;;;;;;4.00;2.00;;;14.50;62.10;;;;;;4709614;30;20190;-90
2021/05/16 03:11:04;;;;;;;2.67;1.65;;;14.60;62.20;;;;;;4753139;30;20060;-88
2021/05/16 03:13:30;;;;;;;3.33;1.70;;;14.60;62.30;;;;;;4734655;30;20067;-90
2021/05/16 03:15:57;;;;;;;3.50;1.75;;;14.50;62.20;;;;;;4724183;30;20105;-89
2021/05/16 03:18:25;;;;;;;3.17;1.80;;;14.50;62.20;;;;;;4725061;30;20032;-87
2021/05/16 03:20:51;;;;;;;3.03;1.80;;;14.50;62.20;;;;;;4738357;30;20064;-89
2021/05/16 03:23:17;;;;;;;3.70;1.80;;;14.50;62.20;;;;;;4735012;30;20035;-89
2021/05/16 03:25:45;;;;;;;3.55;1.80;;;14.50;62.20;;;;;;4742713;30;20044;-89
2021/05/16 03:28:11;;;;;;;3.38;1.80;;;14.60;62.30;;;;;;4735374;30;20059;-89
2021/05/16 03:30:37;;;;;;;4.10;2.05;;;14.50;62.20;;;;;;4738141;30;20072;-89
2021/05/16 03:33:03;;;;;;;3.67;1.83;;;14.50;62.20;;;;;;4723744;30;20283;-89
2021/05/16 03:35:29;;;;;;;2.97;1.90;;;14.50;62.20;;;;;;4738051;30;20247;-89
2021/05/16 03:37:54;;;;;;;3.50;1.88;;;14.50;62.30;;;;;;4738129;30;20042;-89
2021/05/16 03:40:20;;;;;;;4.90;1.75;;;14.50;62.30;;;;;;4752193;30;20032;-89
2021/05/16 03:42:46;;;;;;;3.90;1.75;;;14.50;62.30;;;;;;4753469;30;20119;-89
2021/05/16 03:45:13;;;;;;;3.80;1.80;;;14.50;62.30;;;;;;4737819;30;20097;-89
2021/05/16 03:47:39;;;;;;;3.38;1.80;;;14.50;62.90;;;;;;4737918;30;20040;-89
2021/05/16 03:50:07;;;;;;;3.75;1.52;;;14.50;62.30;;;;;;4752710;30;20037;-89
2021/05/16 03:52:33;;;;;;;3.03;1.90;;;14.50;62.30;;;;;;4752019;30;20555;-89
2021/05/16 03:54:59;;;;;;;3.50;1.88;;;14.50;62.30;;;;;;4744883;30;20123;-89
2021/05/16 03:57:25;;;;;;;4.18;1.90;;;14.50;62.30;;;;;;4752661;30;20470;-88
2021/05/16 03:59:51;;;;;;;4.05;1.73;;;14.50;62.30;;;;;;4723669;30;20386;-89
2021/05/16 04:02:16;;;;;;;3.25;1.52;;;14.50;62.30;;;;;;4752241;30;20499;-89
2021/05/16 04:04:42;;;;;;;3.17;1.42;;;14.50;62.30;;;;;;4752662;30;20432;-89
2021/05/16 04:07:08;;;;;;;4.00;2.03;;;14.40;62.30;;;;;;4720059;30;20438;-88
2021/05/16 04:09:34;;;;;;;3.45;2.00;;;14.50;62.40;;;;;;4752104;30;20058;-88
2021/05/16 04:12:00;;;;;;;3.28;1.90;;;14.40;62.30;;;;;;4737230;30;20585;-88
2021/05/16 04:14:27;;;;;;;2.95;1.92;;;14.40;62.30;;;;;;4723383;30;20044;-88
2021/05/16 04:16:54;;;;;;;3.10;1.80;;;14.40;62.30;;;;;;4723180;30;20060;-88
2021/05/16 04:19:20;;;;;;;3.47;1.88;;;14.40;62.30;;;;;;4752001;30;20040;-89
2021/05/16 04:21:46;;;;;;;3.67;1.90;;;14.40;62.30;;;;;;4737382;30;20442;-88
2021/05/16 04:24:12;;;;;;;2.95;1.92;;;14.40;62.30;;;;;;4737479;30;20044;-89
2021/05/16 04:26:39;;;;;;;3.83;2.00;;;14.40;62.30;;;;;;4722455;30;20055;-88
2021/05/16 04:29:04;;;;;;;3.42;1.90;;;14.40;62.40;;;;;;4737493;30;20068;-89
2021/05/16 04:31:30;;;;;;;4.05;2.05;;;14.40;62.40;;;;;;4736593;30;20071;-89
2021/05/16 04:33:56;;;;;;;5.97;2.03;;;14.40;62.40;;;;;;4737186;30;20040;-89
2021/05/16 04:36:22;;;;;;;3.40;1.95;;;14.40;62.40;;;;;;4737591;30;20595;-89
2021/05/16 04:38:48;;;;;;;4.57;2.10;;;14.40;62.40;;;;;;4736908;30;20127;-89
2021/05/16 04:41:14;;;;;;;3.88;1.90;;;14.40;62.40;;;;;;4752204;30;20103;-88
2021/05/16 04:43:41;;;;;;;3.03;2.10;;;14.40;62.40;;;;;;4736554;30;20036;-89
2021/05/16 04:46:07;;;;;;;4.40;2.20;;;14.40;62.40;;;;;;4752040;30;20036;-89
2021/05/16 04:48:33;;;;;;;4.40;2.15;;;14.40;62.40;;;;;;4751272;30;20035;-86
2021/05/16 04:50:59;;;;;;;4.97;2.30;;;14.40;62.40;;;;;;4751494;30;20418;-88
2021/05/16 04:53:28;;;;;;;3.25;2.03;;;14.40;62.40;;;;;;4737013;30;20505;-88
2021/05/16 04:55:54;;;;;;;3.17;2.05;;;14.40;63.10;;;;;;4720089;30;20036;-88
2021/05/16 04:58:20;;;;;;;4.25;2.03;;;14.40;62.40;;;;;;4728191;30;20040;-90
2021/05/16 05:00:46;;;;;;;4.30;1.90;;;14.40;62.50;;;;;;4738305;30;20038;-88
2021/05/16 05:03:12;;;;;;;3.60;2.00;;;14.40;62.50;;;;;;4708705;30;20128;-89
2021/05/16 05:05:38;;;;;;;3.20;2.05;;;14.40;62.40;;;;;;4751708;30;20040;-88
2021/05/16 05:08:04;;;;;;;4.10;2.05;;;14.40;62.40;;;;;;4708682;30;20052;-88
2021/05/16 05:10:30;;;;;;;3.55;2.15;;;14.40;62.40;;;;;;4724223;30;20507;-88
2021/05/16 05:12:55;;;;;;;3.67;2.08;;;14.40;62.40;;;;;;4721859;30;20085;-88
2021/05/16 05:15:21;;;;;;;3.72;2.10;;;14.40;62.40;;;;;;4722814;30;20425;-88
2021/05/16 05:17:47;;;;;;;3.67;1.70;;;14.40;62.40;;;;;;4736830;30;20037;-88
2021/05/16 05:20:13;;;;;;;3.88;2.35;;;14.40;62.40;;;;;;4737268;30;20036;-88
2021/05/16 05:22:39;;;;;;;3.30;2.03;;;14.40;62.40;;;;;;4736607;30;20402;-88
2021/05/16 05:25:05;;;;;;;5.53;2.53;;;14.40;62.40;;;;;;4736608;30;20040;-88
2021/05/16 05:27:31;;;;;;;5.80;2.20;;;14.40;62.50;;;;;;4722463;30;20036;-88
2021/05/16 05:29:57;;;;;;;4.07;2.03;;;14.40;62.50;;;;;;4721657;30;20097;-88
2021/05/16 05:32:22;;;;;;;3.30;1.85;;;14.40;62.50;;;;;;4736981;30;20115;-89
2021/05/16 05:34:48;;;;;;;4.00;2.45;;;14.40;62.50;;;;;;4721368;30;20182;-88
2021/05/16 05:37:14;;;;;;;4.97;2.55;;;14.40;62.50;;;;;;4737066;30;20069;-88
2021/05/16 05:39:39;;;;;;;4.68;2.22;;;14.30;62.40;;;;;;4736270;30;20563;-88
2021/05/16 05:42:05;;;;;;;3.97;2.47;;;14.40;62.50;;;;;;4738352;30;20182;-88
2021/05/16 05:44:31;;;;;;;3.50;2.25;;;14.40;62.50;;;;;;4736862;30;20093;-88
2021/05/16 05:46:58;;;;;;;4.28;2.40;;;14.30;62.50;;;;;;4753722;30;20048;-89
2021/05/16 05:49:23;;;;;;;3.30;2.22;;;14.40;62.50;;;;;;4745689;30;20059;-87
2021/05/16 05:51:49;;;;;;;4.70;2.75;;;14.30;62.50;;;;;;4740082;30;20490;-88
2021/05/16 05:54:15;;;;;;;4.47;2.38;;;14.40;62.50;;;;;;4739902;30;20039;-87
2021/05/16 05:56:41;;;;;;;3.13;1.95;;;14.40;62.50;;;;;;4739908;30;20040;-87
2021/05/16 05:59:08;;;;;;;4.38;2.50;;;14.40;62.60;;;;;;4754559;30;20502;-88
2021/05/16 06:01:34;;;;;;;2.97;2.20;;;14.40;62.60;;;;;;4723237;30;20479;-86
2021/05/16 06:04:00;;;;;;;5.10;2.40;;;14.40;62.60;;;;;;4710903;30;20040;-88
2021/05/16 06:06:25;;;;;;;4.82;2.38;;;14.40;62.60;;;;;;4755007;30;20108;-88
2021/05/16 06:08:51;;;;;;;3.58;2.22;;;14.40;62.60;;;;;;4739362;30;20032;-87
2021/05/16 06:11:17;;;;;;;4.35;2.50;;;14.40;62.60;;;;;;4739626;30;20028;-87
2021/05/16 06:13:43;;;;;;;3.90;2.22;;;14.40;62.60;;;;;;4736960;30;20068;-87
2021/05/16 06:16:09;;;;;;;4.25;2.50;;;14.40;62.60;;;;;;4740276;30;20129;-88
2021/05/16 06:18:36;;;;;;;4.95;2.60;;;14.40;62.60;;;;;;4722383;30;20055;-86
2021/05/16 06:21:02;;;;;;;3.75;2.20;;;14.40;62.60;;;;;;4719928;30;20032;-87
2021/05/16 06:23:36;;;;;;;3.55;2.10;;;14.40;62.70;;;;;;4727922;30;20094;-86
2021/05/16 06:26:02;;;;;;;4.37;2.13;;;14.40;62.70;;;;;;4753795;30;20112;-87
2021/05/16 06:28:28;;;;;;;5.00;2.58;;;14.40;62.60;;;;;;4739655;30;20040;-88
2021/05/16 06:30:54;;;;;;;4.88;2.78;;;14.40;62.60;;;;;;4739130;30;20113;-88
2021/05/16 06:33:19;;;;;;;4.18;2.47;;;14.40;62.70;;;;;;4725101;30;20032;-86
2021/05/16 06:35:45;;;;;;;5.18;2.70;;;14.40;62.70;;;;;;4721846;30;20514;-87
2021/05/16 06:38:11;;;;;;;3.85;2.58;;;14.40;62.70;;;;;;4754200;30;20040;-88
2021/05/16 06:40:37;;;;;;;4.85;2.60;;;14.40;62.70;;;;;;4739381;30;20038;-87
2021/05/16 06:43:04;;;;;;;4.05;2.53;;;14.40;62.70;;;;;;4754258;30;20067;-86
2021/05/16 06:45:30;;;;;;;4.90;2.50;;;14.40;62.80;;;;;;4754039;30;20099;-87
2021/05/16 06:47:56;;;;;;;5.85;3.00;;;14.50;62.80;;;;;;4724599;30;20051;-88
2021/05/16 06:50:22;;;;;;;3.53;2.28;;;14.40;62.80;;;;;;4751698;30;20047;-88
2021/05/16 06:52:48;;;;;;;4.88;2.60;;;14.50;62.80;;;;;;4753090;30;20111;-88
2021/05/16 06:55:14;;;;;;;5.45;2.60;;;14.50;62.90;;;;;;4729673;30;20072;-86
2021/05/16 06:57:42;;;;;;;4.80;2.50;;;14.40;62.80;;;;;;4721131;30;20066;-85
2021/05/16 07:00:09;;;;;;;5.10;2.78;;;14.50;62.90;;;;;;4756265;30;20474;-86
2021/05/16 07:02:34;;;;;;;4.88;2.72;;;14.50;62.90;;;;;;4755464;30;20163;-86
2021/05/16 07:05:00;;;;;;;6.03;2.78;;;14.50;63.50;;;;;;4756306;30;20136;-88
2021/05/16 07:07:26;;;;;;;4.60;2.80;;;14.50;62.90;;;;;;4753516;30;20389;-90
2021/05/16 07:09:52;;;;;;;3.63;2.42;;;14.50;62.80;;;;;;4756406;30;20094;-86
2021/05/16 07:12:17;;;;;;;5.70;2.80;;;14.50;62.80;;;;;;4739075;30;20032;-86
2021/05/16 07:14:43;;;;;;;5.63;2.53;;;14.50;62.80;;;;;;4759816;30;20091;-86
2021/05/16 07:17:09;;;;;;;4.07;2.60;;;14.60;62.90;;;;;;4754769;30;20040;-85
2021/05/16 07:19:35;;;;;;;4.30;2.22;;;14.60;62.90;;;;;;4770878;30;20442;-86
2021/05/16 07:22:00;;;;;;;5.88;2.88;;;14.60;62.90;;;;;;4768756;30;20028;-88
2021/05/16 07:24:26;;;;;;;3.85;2.42;;;14.60;62.90;;;;;;4744195;30;20043;-90
2021/05/16 07:26:52;;;;;;;5.55;2.45;;;14.70;63.00;;;;;;4738807;30;20036;-88
2021/05/16 07:29:18;;;;;;;5.45;2.92;;;14.70;62.90;;;;;;4753753;30;20047;-89
2021/05/16 07:31:44;;;;;;;4.53;2.50;;;14.70;62.90;;;;;;4723823;30;20040;-85
2021/05/16 07:34:10;;;;;;;4.85;2.38;;;14.70;62.90;;;;;;4738090;30;20052;-84
2021/05/16 07:36:36;;;;;;;4.82;2.50;;;14.70;62.90;;;;;;4738125;30;20047;-86
2021/05/16 07:39:05;;;;;;;5.10;2.47;;;14.70;62.80;;;;;;4724512;30;20039;-89
2021/05/16 07:41:31;;;;;;;4.50;2.63;;;14.80;62.90;;;;;;4738534;30;20461;-92
2021/05/16 07:43:59;;;;;;;3.60;2.22;;;14.80;62.90;;;;;;4741125;30;20040;-88
2021/05/16 07:46:30;;;;;;;5.55;2.60;;;14.80;62.80;;;;;;4738327;30;20094;-94
2021/05/16 07:48:56;;;;;;;3.20;1.90;;;14.80;62.90;;;;;;4752496;30;20040;-85
2021/05/16 07:51:22;;;;;;;5.82;2.42;;;14.80;62.90;;;;;;4738828;30;20152;-88
2021/05/16 07:53:47;;;;;;;5.18;2.63;;;14.90;63.50;;;;;;4752922;30;20061;-87
2021/05/16 07:56:13;;;;;;;4.95;2.45;;;14.80;62.80;;;;;;4723545;30;20064;-87
2021/05/16 07:58:39;;;;;;;4.50;2.40;;;14.90;62.90;;;;;;4737907;30;20051;-90
2021/05/16 08:01:23;;;;;;;5.60;2.70;;;14.90;62.80;;;;;;4738725;30;20394;-94
2021/05/16 08:07:25;;;;;;;4.30;2.42;;;15.00;62.80;;;;;;4737406;30;20055;-88
2021/05/16 08:09:56;;;;;;;4.82;2.42;;;15.00;62.70;;;;;;4735098;30;20111;-87
2021/05/16 08:12:25;;;;;;;5.10;2.92;;;15.00;62.70;;;;;;4755229;30;20753;-90
2021/05/16 08:15:09;;;;;;;5.75;2.75;;;15.00;62.70;;;;;;4752250;30;20083;-93
2021/05/16 08:17:35;;;;;;;3.73;2.60;;;15.00;62.90;;;;;;4752640;30;20032;-88
2021/05/16 08:20:23;;;;;;;4.68;2.50;;;15.10;62.70;;;;;;4737982;30;20028;-92
2021/05/16 08:22:51;;;;;;;4.47;3.00;;;15.10;62.80;;;;;;4752495;30;20032;-94
2021/05/16 08:25:20;;;;;;;5.03;2.78;;;15.10;62.70;;;;;;4752016;30;20039;-89
2021/05/16 08:27:46;;;;;;;4.53;2.63;;;15.10;62.70;;;;;;4752517;30;20570;-87
2021/05/16 08:30:13;;;;;;;3.88;2.72;;;15.10;62.70;;;;;;4765427;30;20052;-89
2021/05/16 08:32:43;;;;;;;5.38;2.65;;;15.20;62.70;;;;;;4751301;30;20036;-92
2021/05/16 08:35:09;;;;;;;4.55;3.03;;;15.20;62.70;;;;;;4751380;30;20070;-88
2021/05/16 08:37:35;;;;;;;4.00;2.63;;;15.20;62.70;;;;;;4751973;30;20048;-88
2021/05/16 08:40:03;;;;;;;4.93;2.80;;;15.30;62.70;;;;;;4751752;30;20404;-85
2021/05/16 08:42:29;;;;;;;5.75;2.72;;;15.30;62.60;;;;;;4737366;30;20135;-85
2021/05/16 08:44:55;;;;;;;4.38;2.50;;;15.30;62.60;;;;;;4751843;30;20052;-86
2021/05/16 08:47:21;;;;;;;4.43;3.10;;;15.40;62.60;;;;;;4748995;30;20036;-86
2021/05/16 08:49:47;;;;;;;4.93;2.95;;;15.40;62.60;;;;;;4744863;30;20063;-85
2021/05/16 08:52:14;;;;;;;6.30;3.00;;;15.40;62.50;;;;;;4723379;30;20024;-93
2021/05/16 08:54:41;;;;;;;5.13;2.97;;;15.40;62.50;;;;;;4751920;30;20044;-91
2021/05/16 08:57:07;;;;;;;5.18;3.40;;;15.50;62.50;;;;;;4737317;30;20033;-91
2021/05/16 08:59:33;;;;;;;5.38;2.97;;;15.50;62.50;;;;;;4749134;30;20033;-88
2021/05/16 09:02:00;;;;;;;5.25;2.90;;;15.60;62.50;;;;;;4746526;30;20072;-90
2021/05/16 09:04:32;;;;;;;4.60;2.78;;;15.60;62.50;;;;;;4736967;30;20060;-87
2021/05/16 09:06:59;;;;;;;5.95;2.85;;;15.60;62.40;;;;;;4747830;30;20123;-84
2021/05/16 09:09:34;;;;;;;5.15;2.95;;;15.70;62.40;;;;;;4750874;30;20463;-86
2021/05/16 09:12:07;;;;;;;5.13;3.13;;;15.70;62.50;;;;;;4750821;30;20047;-84
2021/05/16 09:14:57;;;;;;;4.50;3.03;;;15.70;62.40;;;;;;4746519;30;20052;-87
2021/05/16 09:17:33;;;;;;;5.93;3.13;;;15.70;62.40;;;;;;4753586;30;20527;-86
2021/05/16 09:20:03;;;;;;;4.75;3.05;;;15.80;62.30;;;;;;4763820;30;20051;-85
2021/05/16 09:22:35;;;;;;;5.97;3.30;;;15.80;62.20;;;;;;4754538;30;20036;-86
2021/05/16 09:25:20;;;;;;;4.72;3.05;;;15.90;62.20;;;;;;4769437;30;20397;-83
2021/05/16 09:28:09;;;;;;;5.25;3.13;;;15.90;62.20;;;;;;4755406;30;20367;-89
2021/05/16 09:30:36;;;;;;;5.10;3.10;;;16.00;62.10;;;;;;4755332;30;20083;-85
2021/05/16 09:33:07;;;;;;;5.50;3.30;;;16.10;62.00;;;;;;4754437;30;20020;-87
2021/05/16 09:35:35;;;;;;;5.97;3.33;;;16.10;62.00;;;;;;4754866;30;20056;-86
2021/05/16 09:38:07;;;;;;;4.97;3.10;;;16.20;61.90;;;;;;4751679;30;20075;-87
2021/05/16 09:40:42;;;;;;;4.72;2.92;;;16.20;61.90;;;;;;4742884;30;20112;-87
2021/05/16 09:43:16;;;;;;;5.20;2.78;;;16.30;61.80;;;;;;4739895;30;20039;-85
2021/05/16 09:45:49;;;;;;;5.03;2.90;;;16.40;61.70;;;;;;4739907;30;20040;-84
2021/05/16 09:48:47;;;;;;;6.00;2.75;;;16.40;61.60;;;;;;4768803;30;20046;-86
2021/05/16 09:51:26;;;;;;;3.47;2.25;;;16.50;61.70;;;;;;4742732;30;20548;-87
2021/05/16 09:54:06;;;;;;;5.10;2.83;;;16.50;61.50;;;;;;4739419;30;20036;-86
2021/05/16 09:56:38;;;;;;;4.13;2.80;;;16.60;61.60;;;;;;4747298;30;20044;-87
2021/05/16 09:59:12;;;;;;;5.38;3.10;;;16.70;61.50;;;;;;4754255;30;20036;-88
2021/05/16 10:01:39;;;;;;;5.88;2.85;;;16.70;61.40;;;;;;4739574;30;20044;-83
2021/05/16 10:04:15;;;;;;;4.25;2.90;;;16.80;61.30;;;;;;4738441;30;20064;-86
2021/05/16 10:06:44;;;;;;;4.78;3.10;;;16.90;61.30;;;;;;4724985;30;20466;-88
2021/05/16 10:09:12;;;;;;;3.38;2.35;;;17.00;61.30;;;;;;4754683;30;20081;-85
2021/05/16 10:11:38;;;;;;;3.72;2.40;;;17.00;61.20;;;;;;4754491;30;20090;-86
2021/05/16 10:14:16;;;;;;;4.03;2.58;;;17.10;61.10;;;;;;4764896;30;20528;-86
2021/05/16 10:16:47;;;;;;;4.10;2.33;;;17.20;61.10;;;;;;4759410;30;20055;-86
2021/05/16 10:19:20;;;;;;;4.93;2.55;;;17.30;61.00;;;;;;4754216;30;20028;-84
2021/05/16 10:22:03;;;;;;;4.70;2.38;;;17.30;60.80;;;;;;4745909;30;20463;-86
2021/05/16 10:24:39;;;;;;;3.90;2.40;;;17.40;60.80;;;;;;4752128;30;20051;-86
2021/05/16 10:27:25;;;;;;;4.60;2.47;;;17.50;60.80;;;;;;4757782;30;20036;-86
2021/05/16 10:30:03;;;;;;;3.88;2.22;;;17.50;60.80;;;;;;4751541;30;20466;-86
2021/05/16 10:32:34;;;;;;;4.10;2.20;;;17.60;60.60;;;;;;4753201;30;20055;-86
2021/05/16 10:35:06;;;;;;;4.00;2.25;;;17.70;60.50;;;;;;4739431;30;20048;-86
2021/05/16 10:37:57;;;;;;;4.30;2.22;;;17.80;60.50;;;;;;4753970;30;20035;-86
2021/05/16 10:40:29;;;;;;;4.20;2.35;;;17.90;60.50;;;;;;4759461;30;20139;-86
2021/05/16 10:43:03;;;;;;;3.60;2.20;;;17.90;60.30;;;;;;4753789;30;20089;-86
2021/05/16 10:45:37;;;;;;;2.95;1.95;;;17.90;60.20;;;;;;4753270;30;20044;-85
2021/05/16 10:48:20;;;;;;;4.03;2.28;;;18.00;60.20;;;;;;4754244;30;20112;-87
2021/05/16 10:50:55;;;;;;;4.15;2.03;;;18.10;60.20;;;;;;4757549;30;20113;-86
2021/05/16 10:53:30;;;;;;;3.38;2.10;;;18.10;60.00;;;;;;4739068;30;20474;-86
2021/05/16 10:56:09;;;;;;;4.63;2.00;;;18.20;60.00;;;;;;4753696;30;20090;-86
2021/05/16 10:58:48;;;;;;;2.80;2.03;;;18.20;60.00;;;;;;4765578;30;20036;-87
2021/05/16 11:01:35;;;;;;;3.40;1.77;;;18.30;59.90;;;;;;4738970;30;20037;-89
2021/05/16 11:04:03;;;;;;;2.53;1.80;;;18.30;59.90;;;;;;4753219;30;20036;-85
2021/05/16 11:06:37;;;;;;;3.05;1.85;;;18.40;59.80;;;;;;4738876;30;20047;-86
2021/05/16 11:09:04;;;;;;;;;;;18.40;59.80;;;;;;4753613;30;20032;-86
2021/05/16 11:11:35;;;;;;;2.65;1.70;;;18.50;59.90;;;;;;4743397;30;19918;-85
2021/05/16 11:14:19;;;;;;;2.33;1.65;;;18.50;59.50;;;;;;4767781;30;20086;-84
2021/05/16 11:16:55;;;;;;;4.03;1.83;;;18.60;59.70;;;;;;4752987;30;20394;-85
2021/05/16 11:19:22;;;;;;;5.10;2.00;;;18.60;59.60;;;;;;4755638;30;20531;-82
2021/05/16 11:21:48;;;;;;;4.70;1.90;;;18.60;59.40;;;;;;4752885;30;20053;-85
2021/05/16 11:24:15;;;;;;;4.10;2.13;;;18.60;59.40;;;;;;4738002;30;20044;-86
2021/05/16 11:26:42;;;;;;;6.07;1.80;;;18.70;59.40;;;;;;4753224;30;20032;-86
2021/05/16 11:29:09;;;;;;;5.18;2.10;;;18.80;59.40;;;;;;4752840;30;20044;-88
2021/05/16 11:31:35;;;;;;;4.70;2.33;;;18.80;59.30;;;;;;4756158;30;20039;-87
2021/05/16 11:34:04;;;;;;;4.43;1.85;;;18.80;59.30;;;;;;4753205;30;20036;-86
2021/05/16 11:36:33;;;;;;;4.15;1.85;;;18.90;59.40;;;;;;4754249;30;20028;-87
2021/05/16 11:39:01;;;;;;;4.63;2.00;;;18.90;59.40;;;;;;4755248;30;20055;-88
2021/05/16 11:41:45;;;;;;;;;;;;;;;;;;;;;
2021/05/16 11:44:14;;;;;;;3.80;1.98;;;19.00;59.30;;;;;;4741928;30;20093;-87
2021/05/16 11:46:45;;;;;;;2.65;1.77;;;19.10;59.30;;;;;;4757903;30;20064;-87
2021/05/16 11:49:15;;;;;;;3.88;1.83;;;19.10;59.20;;;;;;4729964;30;20102;-85
2021/05/16 11:51:41;;;;;;;3.85;1.77;;;19.10;59.20;;;;;;4766732;30;20036;-86
2021/05/16 11:54:10;;;;;;;4.60;2.00;;;19.10;59.10;;;;;;4723636;30;20054;-85
2021/05/16 11:56:39;;;;;;;4.45;1.83;;;19.20;59.20;;;;;;4752722;30;20430;-88
2021/05/16 11:59:06;;;;;;;4.07;1.92;;;19.20;59.20;;;;;;4723475;30;20471;-87
2021/05/16 12:01:42;;;;;;;4.47;1.77;;;19.20;59.30;;;;;;4752341;30;20036;-87
2021/05/16 12:04:14;;;;;;;5.38;1.77;;;19.20;59.40;;;;;;4749096;30;20098;-88
2021/05/16 12:06:45;;;;;;;3.50;1.50;;;19.20;59.30;;;;;;4729960;30;20523;-89
2021/05/16 12:09:17;;;;;;;3.50;1.60;;;19.20;59.30;;;;;;4749892;30;20035;-89
2021/05/16 12:11:48;;;;;;;2.90;1.40;;;19.20;59.30;;;;;;4752559;30;20037;-88
2021/05/16 12:14:16;;;;;;;3.70;1.50;;;19.20;59.40;;;;;;4752663;30;20109;-90
2021/05/16 12:16:57;;;;;;;4.57;1.55;;;19.20;59.40;;;;;;4752203;30;20070;-88
2021/05/16 12:19:28;;;;;;;2.50;1.27;;;19.20;59.50;;;;;;4764781;30;20036;-87
2021/05/16 12:21:56;;;;;;;3.20;1.30;;;19.20;59.50;;;;;;4751843;30;20364;-88
2021/05/16 12:24:23;;;;;;;3.03;1.40;;;19.20;59.60;;;;;;4751913;30;20071;-87
2021/05/16 12:26:50;;;;;;;1.85;1.17;;;19.20;59.60;;;;;;4737433;30;20079;-87
2021/05/16 12:29:17;;;;;;;2.78;1.40;;;19.20;59.60;;;;;;4737149;30;20408;-87
2021/05/16 12:31:44;;;;;;;2.13;1.40;;;19.20;59.60;;;;;;4751178;30;20036;-86
2021/05/16 12:34:12;;;;;;;2.08;1.30;;;19.20;59.60;;;;;;4736847;30;20047;-87
2021/05/16 12:37:23;;;;;;;3.45;1.45;;;19.20;59.60;;;;;;4736646;30;20089;-85
2021/05/16 12:40:05;;;;;;;2.92;1.38;;;19.20;59.70;;;;;;4740479;30;20329;-85
2021/05/16 12:42:37;;;;;;;2.75;1.27;;;19.20;59.60;;;;;;4728182;30;20029;-86
2021/05/16 12:45:23;;;;;;;3.20;1.30;;;19.20;59.60;;;;;;4736265;30;20063;-89
2021/05/16 12:48:06;;;;;;;2.53;1.20;;;19.20;59.70;;;;;;4751141;30;20040;-84
2021/05/16 12:50:41;;;;;;;2.90;1.45;;;19.20;59.70;;;;;;4750675;30;20032;-85
2021/05/16 12:53:29;;;;;;;3.15;1.50;;;19.30;59.70;;;;;;4751225;30;20036;-86
2021/05/16 12:56:20;;;;;;;2.63;1.30;;;19.30;59.80;;;;;;4739836;30;20460;-86
2021/05/16 12:59:09;;;;;;;1.17;1.00;;;19.30;59.80;;;;;;4753853;30;20032;-85
2021/05/16 13:01:37;;;;;;;2.53;1.15;;;19.30;59.80;;;;;;4720052;30;20052;-85